createdAt,value
2023-05-14T00:01:59.144Z,11.36
2023-05-14T00:04:47.912Z,11.19
2023-05-14T00:07:36.883Z,11.21
2023-05-14T00:10:25.736Z,11.27
2023-05-14T00:13:14.481Z,11.25
2023-05-14T00:16:03.256Z,11.23
2023-05-14T00:18:53.351Z,11.28
2023-05-14T00:21:42.258Z,11.28
2023-05-14T00:24:30.953Z,11.34
2023-05-14T00:27:21.336Z,11.48
2023-05-14T00:30:10.840Z,11.28
2023-05-14T00:32:59.659Z,11.40
2023-05-14T00:35:50.023Z,11.52
2023-05-14T00:38:38.931Z,11.55
2023-05-14T00:41:27.698Z,11.53
2023-05-14T00:44:16.400Z,11.54
2023-05-14T00:47:06.094Z,11.68
2023-05-14T00:49:55.175Z,11.95
2023-05-14T00:52:46.046Z,11.99
2023-05-14T00:55:35.120Z,12.03
2023-05-14T00:58:25.305Z,12.06
2023-05-14T01:01:15.329Z,12.39
2023-05-14T01:04:05.180Z,12.38
2023-05-14T01:07:10.273Z,12.31
2023-05-14T01:10:08.481Z,12.40
2023-05-14T01:13:09.258Z,12.30
2023-05-14T01:16:00.808Z,12.21
2023-05-14T01:18:52.670Z,12.43
2023-05-14T01:21:44.999Z,12.26
2023-05-14T01:24:34.105Z,12.10
2023-05-14T01:27:32.812Z,12.52
2023-05-14T01:30:31.064Z,12.49
2023-05-14T01:33:22.845Z,12.40
2023-05-14T01:36:12.148Z,12.20
2023-05-14T01:39:04.258Z,12.31
2023-05-14T01:41:54.423Z,12.29
2023-05-14T01:44:43.966Z,12.40
2023-05-14T01:47:32.932Z,12.52
2023-05-14T01:50:21.934Z,12.42
2023-05-14T01:53:10.847Z,12.41
2023-05-14T01:56:00.923Z,12.61
2023-05-14T01:58:49.603Z,12.70
2023-05-14T02:01:38.482Z,12.69
2023-05-14T02:04:27.307Z,12.51
2023-05-14T02:07:16.084Z,12.65
2023-05-14T02:10:05.090Z,12.64
2023-05-14T02:12:55.155Z,12.49
2023-05-14T02:15:43.921Z,12.49
2023-05-14T02:18:32.677Z,12.21
2023-05-14T02:21:21.623Z,12.17
2023-05-14T02:24:13.419Z,12.29
2023-05-14T02:27:02.170Z,12.10
2023-05-14T02:29:52.407Z,12.08
2023-05-14T02:32:41.438Z,11.62
2023-05-14T02:35:30.192Z,11.61
2023-05-14T02:38:18.900Z,11.78
2023-05-14T02:41:07.803Z,11.63
2023-05-14T02:43:56.523Z,11.57
2023-05-14T02:46:46.775Z,11.59
2023-05-14T02:49:35.549Z,11.44
2023-05-14T02:52:24.505Z,11.24
2023-05-14T02:55:13.490Z,11.05
2023-05-14T02:58:02.370Z,10.98
2023-05-14T03:00:51.406Z,11.06
2023-05-14T03:03:41.866Z,11.12
2023-05-14T03:06:31.468Z,11.27
2023-05-14T03:09:20.160Z,11.19
2023-05-14T03:12:09.622Z,11.00
2023-05-14T03:14:58.357Z,11.05
2023-05-14T03:17:47.104Z,10.86
2023-05-14T03:20:37.312Z,10.76
2023-05-14T03:23:26.286Z,10.71
2023-05-14T03:26:15.454Z,10.56
2023-05-14T03:29:04.408Z,10.53
2023-05-14T03:31:54.344Z,10.51
2023-05-14T03:34:44.647Z,10.46
2023-05-14T03:37:35.351Z,10.39
2023-05-14T03:40:24.242Z,10.42
2023-05-14T03:43:13.225Z,10.50
2023-05-14T03:46:01.991Z,10.39
2023-05-14T03:48:50.845Z,10.34
2023-05-14T03:51:39.695Z,10.22
2023-05-14T03:54:29.899Z,10.34
2023-05-14T03:57:18.637Z,10.37
2023-05-14T04:00:09.244Z,10.46
2023-05-14T04:03:06.039Z,10.39
2023-05-14T04:05:54.825Z,10.43
2023-05-14T04:08:43.533Z,10.47
2023-05-14T04:11:33.856Z,10.51
2023-05-14T04:14:22.808Z,10.53
2023-05-14T04:17:11.529Z,10.59
2023-05-14T04:20:02.134Z,10.48
2023-05-14T04:22:50.857Z,10.61
2023-05-14T04:25:39.595Z,10.65
2023-05-14T04:28:29.673Z,10.65
2023-05-14T04:31:18.578Z,10.84
2023-05-14T04:34:07.315Z,10.72
2023-05-14T04:36:55.976Z,11.15
2023-05-14T04:39:45.068Z,11.10
2023-05-14T04:42:33.887Z,11.25
2023-05-14T04:45:24.355Z,11.49
2023-05-14T04:48:13.140Z,11.43
2023-05-14T04:51:01.911Z,11.52
2023-05-14T04:53:50.608Z,11.77
2023-05-14T04:56:39.987Z,11.74
2023-05-14T04:59:28.658Z,11.91
2023-05-14T05:02:18.800Z,12.00
2023-05-14T05:05:08.708Z,12.17
2023-05-14T05:07:57.406Z,12.47
2023-05-14T05:10:46.123Z,12.60
2023-05-14T05:13:34.862Z,12.46
2023-05-14T05:16:23.629Z,12.53
2023-05-14T05:19:13.848Z,12.27
2023-05-14T05:22:03.754Z,12.34
2023-05-14T05:24:52.509Z,12.79
2023-05-14T05:27:41.331Z,12.58
2023-05-14T05:30:30.371Z,12.68
2023-05-14T05:33:19.828Z,13.05
2023-05-14T05:36:10.511Z,12.91
2023-05-14T05:38:59.228Z,13.10
2023-05-14T05:41:48.022Z,13.38
2023-05-14T05:44:36.768Z,13.56
2023-05-14T05:47:25.761Z,13.70
2023-05-14T05:50:15.005Z,13.67
2023-05-14T05:53:05.337Z,13.94
2023-05-14T05:55:54.235Z,13.58
2023-05-14T05:58:43.135Z,13.62
2023-05-14T06:01:32.075Z,13.73
2023-05-14T06:04:20.906Z,13.94
2023-05-14T06:07:09.738Z,14.13
2023-05-14T06:09:59.818Z,14.16
2023-05-14T06:12:48.667Z,14.27
2023-05-14T06:15:37.416Z,14.27
2023-05-14T06:18:26.245Z,14.84
2023-05-14T06:21:15.129Z,14.78
2023-05-14T06:24:04.013Z,14.86
2023-05-14T06:26:54.111Z,15.16
2023-05-14T06:29:43.340Z,15.01
2023-05-14T06:32:32.187Z,14.62
2023-05-14T06:35:21.124Z,14.82
2023-05-14T06:38:09.883Z,15.15
2023-05-14T06:40:58.627Z,15.22
2023-05-14T06:43:48.799Z,15.47
2023-05-14T06:46:38.091Z,15.74
2023-05-14T06:49:26.840Z,15.74
2023-05-14T06:52:15.554Z,16.30
2023-05-14T06:55:04.375Z,16.24
2023-05-14T06:57:53.686Z,16.55
2023-05-14T07:00:44.717Z,16.66
2023-05-14T07:03:33.438Z,16.87
2023-05-14T07:06:22.465Z,17.10
2023-05-14T07:09:11.800Z,17.34
2023-05-14T07:12:00.572Z,18.09
2023-05-14T07:14:49.286Z,18.85
2023-05-14T07:17:39.428Z,19.11
2023-05-14T07:20:28.484Z,19.06
2023-05-14T07:23:19.674Z,18.58
2023-05-14T07:26:10.109Z,18.70
2023-05-14T07:28:59.239Z,18.76
2023-05-14T07:31:48.973Z,19.94
2023-05-14T07:34:39.268Z,20.00
2023-05-14T07:37:28.210Z,19.77
2023-05-14T07:40:17.384Z,20.27
2023-05-14T07:43:06.227Z,20.20
2023-05-14T07:45:55.581Z,19.61
2023-05-14T07:48:44.443Z,19.93
2023-05-14T07:51:34.637Z,20.07
2023-05-14T07:54:23.452Z,20.25
2023-05-14T07:57:12.220Z,19.97
2023-05-14T08:00:01.091Z,20.27
2023-05-14T08:02:50.380Z,20.27
2023-05-14T08:05:39.311Z,19.58
2023-05-14T08:08:29.482Z,20.76
2023-05-14T08:11:18.545Z,21.22
2023-05-14T08:14:09.584Z,21.72
2023-05-14T08:16:58.421Z,21.99
2023-05-14T08:19:47.674Z,21.40
2023-05-14T08:25:26.509Z,22.13
2023-05-14T08:28:15.297Z,22.51
2023-05-14T08:31:04.089Z,22.75
2023-05-14T08:33:52.995Z,22.02
2023-05-14T08:36:42.103Z,21.96
2023-05-14T08:39:31.206Z,21.98
2023-05-14T08:42:26.107Z,22.95
2023-05-14T08:45:20.338Z,23.36
2023-05-14T08:48:16.506Z,23.70
2023-05-14T08:51:05.793Z,24.42
2023-05-14T08:53:54.600Z,23.38
2023-05-14T08:56:45.457Z,23.63
2023-05-14T08:59:35.648Z,23.79
2023-05-14T09:02:28.949Z,23.86
2023-05-14T09:05:20.589Z,24.86
2023-05-14T09:08:09.587Z,25.06
2023-05-14T09:10:58.370Z,25.36
2023-05-14T09:13:47.175Z,23.39
2023-05-14T09:16:38.022Z,23.44
2023-05-14T09:19:27.888Z,22.90
2023-05-14T09:22:19.138Z,24.37
2023-05-14T09:25:12.007Z,22.47
2023-05-14T09:28:00.944Z,23.20
2023-05-14T09:30:52.698Z,22.89
2023-05-14T09:33:42.829Z,23.11
2023-05-14T09:36:31.627Z,22.23
2023-05-14T09:39:20.433Z,20.47
2023-05-14T09:42:09.707Z,21.37
2023-05-14T09:44:59.226Z,21.49
2023-05-14T09:47:48.207Z,20.14
2023-05-14T09:50:43.657Z,20.48
2023-05-14T09:53:33.764Z,21.84
2023-05-14T09:56:25.174Z,20.91
2023-05-14T09:59:14.149Z,19.86
2023-05-14T10:02:06.364Z,19.27
2023-05-14T10:04:58.052Z,19.06
2023-05-14T10:07:50.777Z,18.86
2023-05-14T10:10:40.014Z,18.25
2023-05-14T10:13:38.475Z,19.10
2023-05-14T10:16:36.092Z,18.74
2023-05-14T10:19:26.301Z,18.71
2023-05-14T10:22:19.843Z,18.42
2023-05-14T10:25:12.083Z,18.33
2023-05-14T10:28:02.066Z,18.42
2023-05-14T10:30:52.361Z,19.22
2023-05-14T10:33:50.148Z,19.35
2023-05-14T10:36:40.611Z,19.49
2023-05-14T10:39:44.186Z,20.04
2023-05-14T10:42:37.479Z,19.97
2023-05-14T10:45:27.945Z,20.49
2023-05-14T10:48:16.804Z,20.69
2023-05-14T10:51:08.810Z,20.27
2023-05-14T10:53:58.133Z,20.16
2023-05-14T10:56:47.537Z,20.63
2023-05-14T10:59:37.965Z,20.55
2023-05-14T11:02:30.427Z,20.60
2023-05-14T11:05:20.111Z,20.59
2023-05-14T11:08:10.126Z,20.46
2023-05-14T11:10:59.357Z,19.94
2023-05-14T11:13:48.942Z,20.37
2023-05-14T11:16:39.425Z,21.14
2023-05-14T11:19:28.237Z,21.94
2023-05-14T11:22:17.187Z,22.42
2023-05-14T11:25:08.106Z,22.93
2023-05-14T11:27:58.663Z,22.28
2023-05-14T11:30:47.686Z,22.81
2023-05-14T11:33:37.997Z,22.54
2023-05-14T11:36:27.435Z,20.96
2023-05-14T11:39:19.843Z,21.39
2023-05-14T11:42:14.692Z,21.73
2023-05-14T11:45:03.609Z,22.26
2023-05-14T11:47:54.848Z,21.46
2023-05-14T11:50:50.040Z,21.58
2023-05-14T11:53:38.835Z,21.52
2023-05-14T11:56:27.492Z,20.69
2023-05-14T11:59:18.591Z,20.17
2023-05-14T12:02:12.927Z,20.13
2023-05-14T12:05:03.720Z,19.70
2023-05-14T12:07:56.055Z,19.56
2023-05-14T12:10:44.869Z,19.45
2023-05-14T12:13:34.536Z,19.32
2023-05-14T12:16:23.332Z,19.83
2023-05-14T12:19:15.383Z,20.44
2023-05-14T12:22:04.273Z,21.15
2023-05-14T12:24:59.841Z,20.78
2023-05-14T12:27:48.653Z,21.37
2023-05-14T12:30:39.160Z,22.06
2023-05-14T12:33:28.603Z,22.90
2023-05-14T12:36:21.697Z,23.55
2023-05-14T12:39:12.643Z,24.49
2023-05-14T12:42:02.852Z,22.79
2023-05-14T12:44:51.591Z,22.74
2023-05-14T12:47:40.437Z,22.64
2023-05-14T12:50:31.461Z,22.20
2023-05-14T12:53:20.418Z,23.04
2023-05-14T12:56:10.260Z,23.79
2023-05-14T12:59:00.505Z,23.98
2023-05-14T13:01:49.270Z,22.78
2023-05-14T13:04:38.530Z,22.45
2023-05-14T13:07:27.685Z,22.21
2023-05-14T13:10:18.359Z,21.77
2023-05-14T13:13:07.152Z,22.02
2023-05-14T13:15:57.555Z,21.32
2023-05-14T13:18:46.333Z,21.13
2023-05-14T13:21:35.149Z,20.15
2023-05-14T13:24:24.979Z,19.60
2023-05-14T13:27:13.841Z,18.32
2023-05-14T13:30:02.708Z,17.09
2023-05-14T13:32:53.148Z,16.73
2023-05-14T13:35:42.044Z,16.44
2023-05-14T13:38:30.859Z,16.51
2023-05-14T13:41:19.684Z,16.61
2023-05-14T13:44:08.479Z,16.51
2023-05-14T13:46:57.243Z,16.30
2023-05-14T13:49:47.384Z,16.22
2023-05-14T13:52:36.552Z,16.89
2023-05-14T13:55:25.542Z,16.71
2023-05-14T13:58:14.692Z,16.73
2023-05-14T14:01:03.672Z,16.74
2023-05-14T14:03:52.569Z,16.53
2023-05-14T14:06:42.824Z,16.69
2023-05-14T14:09:34.979Z,16.78
2023-05-14T14:12:24.033Z,17.01
2023-05-14T14:15:13.931Z,17.49
2023-05-14T14:18:02.670Z,17.66
2023-05-14T14:20:51.709Z,17.48
2023-05-14T14:23:41.845Z,17.21
2023-05-14T14:26:30.768Z,17.01
2023-05-14T14:29:19.770Z,16.94
2023-05-14T14:32:09.250Z,16.88
2023-05-14T14:34:58.081Z,16.96
2023-05-14T14:37:50.740Z,17.01
2023-05-14T14:40:41.003Z,17.05
2023-05-14T14:43:29.833Z,17.00
2023-05-14T14:46:18.676Z,16.89
2023-05-14T14:49:07.511Z,16.97
2023-05-14T14:51:56.390Z,16.88
2023-05-14T14:54:45.543Z,17.26
2023-05-14T14:57:35.997Z,17.46
2023-05-14T15:00:25.045Z,17.50
2023-05-14T15:03:14.932Z,17.81
2023-05-14T15:06:03.898Z,17.79
2023-05-14T15:08:52.640Z,17.44
2023-05-14T15:11:42.652Z,16.61
2023-05-14T15:14:32.767Z,16.76
2023-05-14T15:17:21.755Z,17.01
2023-05-14T15:20:12.285Z,17.06
2023-05-14T15:23:01.102Z,17.03
2023-05-14T15:25:50.191Z,16.79
2023-05-14T15:28:39.026Z,16.92
2023-05-14T15:31:29.360Z,16.92
2023-05-14T15:34:18.209Z,17.01
2023-05-14T15:37:07.114Z,16.80
2023-05-14T15:39:55.895Z,17.05
2023-05-14T15:42:46.835Z,17.00
2023-05-14T15:45:35.621Z,17.42
2023-05-14T15:48:25.864Z,17.38
2023-05-14T15:51:15.404Z,17.89
2023-05-14T15:54:04.490Z,17.47
2023-05-14T15:56:53.316Z,17.91
2023-05-14T15:59:42.156Z,18.27
2023-05-14T16:02:33.174Z,18.16
2023-05-14T16:05:25.448Z,18.26
2023-05-14T16:08:14.362Z,18.25
2023-05-14T16:11:03.472Z,18.27
2023-05-14T16:13:52.279Z,18.30
2023-05-14T16:16:41.328Z,18.39
2023-05-14T16:19:30.427Z,18.33
2023-05-14T16:22:20.688Z,18.27
2023-05-14T16:25:10.699Z,17.27
2023-05-14T16:27:59.513Z,17.92
2023-05-14T16:30:48.594Z,17.92
2023-05-14T16:33:37.274Z,18.15
2023-05-14T16:36:26.805Z,17.84
2023-05-14T16:39:17.381Z,17.06
2023-05-14T16:42:06.955Z,17.23
2023-05-14T16:44:55.690Z,16.98
2023-05-14T16:47:44.495Z,17.80
2023-05-14T16:50:33.419Z,18.24
2023-05-14T16:53:22.143Z,18.38
2023-05-14T16:56:12.419Z,18.92
2023-05-14T16:59:01.182Z,19.18
2023-05-14T17:01:50.742Z,19.22
2023-05-14T17:04:42.076Z,19.32
2023-05-14T17:07:32.191Z,19.51
2023-05-14T17:10:21.115Z,19.66
2023-05-14T17:13:11.292Z,19.66
2023-05-14T17:16:00.524Z,19.74
2023-05-14T17:18:49.536Z,19.66
2023-05-14T17:21:38.330Z,19.74
2023-05-14T17:24:27.305Z,19.42
2023-05-14T17:27:16.750Z,18.60
2023-05-14T17:30:09.238Z,19.00
2023-05-14T17:32:58.148Z,19.26
2023-05-14T17:35:47.096Z,19.77
2023-05-14T17:38:36.607Z,20.33
2023-05-14T17:41:25.468Z,20.64
2023-05-14T17:44:14.196Z,20.37
2023-05-14T17:47:04.819Z,19.57
2023-05-14T17:49:55.816Z,19.14
2023-05-14T17:52:46.058Z,18.80
2023-05-14T17:55:39.880Z,18.27
2023-05-14T17:58:28.804Z,17.98
2023-05-14T18:01:17.669Z,17.73
2023-05-14T18:04:08.113Z,17.04
2023-05-14T18:06:57.123Z,16.88
2023-05-14T18:09:46.602Z,16.80
2023-05-14T18:12:35.425Z,16.59
2023-05-14T18:15:25.681Z,16.67
2023-05-14T18:18:17.073Z,16.44
2023-05-14T18:21:07.340Z,16.08
2023-05-14T18:23:56.212Z,15.80
2023-05-14T18:26:45.037Z,15.68
2023-05-14T18:29:33.958Z,15.85
2023-05-14T18:32:22.753Z,15.84
2023-05-14T18:35:13.978Z,15.68
2023-05-14T18:38:04.245Z,15.47
2023-05-14T18:40:53.222Z,15.63
2023-05-14T18:43:42.091Z,15.26
2023-05-14T18:46:31.265Z,15.14
2023-05-14T18:49:21.321Z,15.15
2023-05-14T18:52:13.014Z,14.95
2023-05-14T18:55:03.253Z,14.68
2023-05-14T18:57:52.791Z,14.60
2023-05-14T19:00:41.624Z,14.50
2023-05-14T19:03:30.599Z,14.39
2023-05-14T19:06:19.560Z,14.16
2023-05-14T19:09:08.449Z,14.05
2023-05-14T19:12:01.035Z,13.92
2023-05-14T19:14:49.921Z,13.94
2023-05-14T19:17:38.964Z,13.74
2023-05-14T19:20:27.991Z,13.63
2023-05-14T19:23:16.925Z,13.67
2023-05-14T19:26:07.136Z,13.77
2023-05-14T19:28:58.930Z,13.76
2023-05-14T19:31:47.764Z,13.67
2023-05-14T19:34:36.831Z,13.77
2023-05-14T19:37:26.204Z,13.56
2023-05-14T19:40:15.014Z,13.43
2023-05-14T19:43:03.808Z,13.20
2023-05-14T19:45:54.127Z,13.32
2023-05-14T19:48:43.048Z,13.41
2023-05-14T19:51:31.843Z,13.54
2023-05-14T19:54:20.677Z,13.54
2023-05-14T19:57:11.176Z,13.30
2023-05-14T19:59:59.904Z,13.17
2023-05-14T20:02:50.437Z,13.02
2023-05-14T20:05:39.339Z,12.96
2023-05-14T20:08:29.031Z,13.02
2023-05-14T20:11:19.485Z,13.15
2023-05-14T20:14:08.414Z,13.11
2023-05-14T20:16:58.043Z,13.13
2023-05-14T20:19:48.538Z,13.12
2023-05-14T20:22:38.298Z,13.17
2023-05-14T20:25:28.572Z,13.18
2023-05-14T20:28:17.708Z,13.27
2023-05-14T20:31:06.499Z,13.29
2023-05-14T20:33:55.328Z,13.23
2023-05-14T20:36:45.859Z,13.05
2023-05-14T20:39:34.698Z,13.08
2023-05-14T20:42:23.514Z,12.67
2023-05-14T20:45:12.953Z,12.85
2023-05-14T20:48:01.735Z,12.79
2023-05-14T20:50:50.575Z,12.78
2023-05-14T20:53:41.131Z,12.83
2023-05-14T20:56:30.335Z,12.67
2023-05-14T20:59:19.365Z,12.52
2023-05-14T21:02:08.199Z,12.47
2023-05-14T21:04:57.065Z,12.52
2023-05-14T21:07:45.811Z,12.44
2023-05-14T21:10:36.014Z,12.10
2023-05-14T21:13:24.819Z,12.04
2023-05-14T21:16:13.680Z,12.08
2023-05-14T21:19:02.583Z,12.16
2023-05-14T21:21:51.352Z,12.10
2023-05-14T21:24:40.104Z,12.10
2023-05-14T21:27:30.250Z,12.24
2023-05-14T21:30:19.111Z,12.09
2023-05-14T21:33:08.061Z,12.10
2023-05-14T21:35:56.952Z,12.14
2023-05-14T21:38:45.731Z,11.93
2023-05-14T21:41:34.535Z,11.75
2023-05-14T21:44:24.666Z,11.79
2023-05-14T21:47:13.627Z,11.97
2023-05-14T21:50:02.325Z,12.00
2023-05-14T21:52:51.650Z,11.94
2023-05-14T21:55:40.780Z,11.69
2023-05-14T21:58:30.035Z,11.85
2023-05-14T22:01:20.230Z,11.81
2023-05-14T22:04:09.008Z,11.88
2023-05-14T22:06:57.769Z,11.81
2023-05-14T22:09:46.459Z,11.79
2023-05-14T22:12:35.157Z,12.05
2023-05-14T22:15:24.134Z,11.88
2023-05-14T22:18:15.460Z,11.72
2023-05-14T22:21:04.521Z,11.61
2023-05-14T22:23:53.273Z,11.46
2023-05-14T22:26:42.081Z,11.59
2023-05-14T22:29:30.897Z,11.72
2023-05-14T22:32:19.616Z,11.78
2023-05-14T22:35:11.222Z,11.42
2023-05-14T22:38:00.079Z,11.57
2023-05-14T22:40:48.872Z,11.76
2023-05-14T22:43:37.830Z,11.95
2023-05-14T22:46:26.735Z,12.15
2023-05-14T22:49:15.907Z,12.26
2023-05-14T22:52:07.021Z,12.24
2023-05-14T22:54:55.800Z,12.09
2023-05-14T22:57:44.982Z,12.25
2023-05-14T23:00:33.776Z,11.76
2023-05-14T23:03:22.487Z,12.09
2023-05-14T23:06:14.393Z,11.86
2023-05-14T23:09:04.643Z,11.95
2023-05-14T23:11:53.352Z,11.89
2023-05-14T23:14:42.646Z,12.08
2023-05-14T23:17:31.454Z,12.26
2023-05-14T23:20:20.296Z,12.27
2023-05-14T23:23:09.012Z,12.34
2023-05-14T23:25:59.241Z,11.91
2023-05-14T23:28:48.300Z,11.94
2023-05-14T23:31:38.635Z,11.77
2023-05-14T23:34:27.437Z,11.73
2023-05-14T23:37:16.225Z,11.52
2023-05-14T23:40:07.647Z,11.55
2023-05-14T23:42:59.306Z,11.66
2023-05-14T23:45:48.187Z,11.78
2023-05-14T23:48:38.192Z,11.86
2023-05-14T23:51:28.464Z,12.17
2023-05-14T23:54:17.344Z,12.15
2023-05-14T23:57:06.559Z,11.96
2023-05-14T23:59:56.757Z,12.13
